sensor_id;sensor_type;location;lat;lon;timestamp;temperature;humidity
5792;DHT22;2922;53.482;10.006;2023-02-15T00:01:09;4.40;99.90
5792;DHT22;2922;53.482;10.006;2023-02-15T00:03:35;4.40;99.90
5792;DHT22;2922;53.482;10.006;2023-02-15T00:06:01;4.40;99.90
5792;DHT22;2922;53.482;10.006;2023-02-15T00:08:26;4.40;99.90
5792;DHT22;2922;53.482;10.006;2023-02-15T00:10:52;4.40;99.90
5792;DHT22;2922;53.482;10.006;2023-02-15T00:13:18;4.50;99.90
5792;DHT22;2922;53.482;10.006;2023-02-15T00:15:43;4.50;99.90
5792;DHT22;2922;53.482;10.006;2023-02-15T00:18:09;4.50;99.90
5792;DHT22;2922;53.482;10.006;2023-02-15T00:20:34;4.50;99.90
5792;DHT22;2922;53.482;10.006;2023-02-15T00:23:00;4.50;99.90
5792;DHT22;2922;53.482;10.006;2023-02-15T00:25:26;4.60;99.90
5792;DHT22;2922;53.482;10.006;2023-02-15T00:27:51;4.60;99.90
5792;DHT22;2922;53.482;10.006;2023-02-15T00:30:17;4.60;99.90
5792;DHT22;2922;53.482;10.006;2023-02-15T00:32:42;4.60;99.90
5792;DHT22;2922;53.482;10.006;2023-02-15T00:35:08;4.60;99.90
5792;DHT22;2922;53.482;10.006;2023-02-15T00:37:34;4.60;99.90
5792;DHT22;2922;53.482;10.006;2023-02-15T00:40:00;4.60;99.90
5792;DHT22;2922;53.482;10.006;2023-02-15T00:42:26;4.60;99.90
5792;DHT22;2922;53.482;10.006;2023-02-15T00:44:51;4.60;99.90
5792;DHT22;2922;53.482;10.006;2023-02-15T00:47:17;4.60;99.90
5792;DHT22;2922;53.482;10.006;2023-02-15T00:49:43;4.70;99.90
5792;DHT22;2922;53.482;10.006;2023-02-15T00:52:08;4.60;99.90
5792;DHT22;2922;53.482;10.006;2023-02-15T00:54:34;4.60;99.90
5792;DHT22;2922;53.482;10.006;2023-02-15T00:57:00;4.60;99.90
5792;DHT22;2922;53.482;10.006;2023-02-15T00:59:26;4.60;99.90
5792;DHT22;2922;53.482;10.006;2023-02-15T01:01:51;4.70;99.90
5792;DHT22;2922;53.482;10.006;2023-02-15T01:04:17;4.60;99.90
5792;DHT22;2922;53.482;10.006;2023-02-15T01:06:43;4.60;99.90
5792;DHT22;2922;53.482;10.006;2023-02-15T01:09:08;4.60;99.90
5792;DHT22;2922;53.482;10.006;2023-02-15T01:11:34;4.60;99.90
5792;DHT22;2922;53.482;10.006;2023-02-15T01:14:00;4.60;99.90
5792;DHT22;2922;53.482;10.006;2023-02-15T01:16:27;4.60;99.90
5792;DHT22;2922;53.482;10.006;2023-02-15T01:18:53;4.70;99.90
5792;DHT22;2922;53.482;10.006;2023-02-15T01:21:21;4.70;99.90
5792;DHT22;2922;53.482;10.006;2023-02-15T01:23:48;4.70;99.90
5792;DHT22;2922;53.482;10.006;2023-02-15T01:26:14;4.70;99.90
5792;DHT22;2922;53.482;10.006;2023-02-15T01:28:40;4.70;99.90
5792;DHT22;2922;53.482;10.006;2023-02-15T01:31:08;4.70;99.90
5792;DHT22;2922;53.482;10.006;2023-02-15T01:33:35;4.70;99.90
5792;DHT22;2922;53.482;10.006;2023-02-15T01:36:01;4.70;99.90
5792;DHT22;2922;53.482;10.006;2023-02-15T01:38:26;4.70;99.90
5792;DHT22;2922;53.482;10.006;2023-02-15T01:40:53;4.70;99.90
5792;DHT22;2922;53.482;10.006;2023-02-15T01:43:19;4.80;99.90
5792;DHT22;2922;53.482;10.006;2023-02-15T01:45:47;4.80;99.90
5792;DHT22;2922;53.482;10.006;2023-02-15T01:48:21;4.80;99.90
5792;DHT22;2922;53.482;10.006;2023-02-15T01:50:57;4.80;99.90
5792;DHT22;2922;53.482;10.006;2023-02-15T01:53:24;4.80;99.90
5792;DHT22;2922;53.482;10.006;2023-02-15T01:55:59;4.80;99.90
5792;DHT22;2922;53.482;10.006;2023-02-15T01:58:27;4.80;99.90
5792;DHT22;2922;53.482;10.006;2023-02-15T02:00:56;4.80;99.90
5792;DHT22;2922;53.482;10.006;2023-02-15T02:03:44;4.70;99.90
5792;DHT22;2922;53.482;10.006;2023-02-15T02:06:14;4.70;99.90
5792;DHT22;2922;53.482;10.006;2023-02-15T02:08:41;4.80;99.90
5792;DHT22;2922;53.482;10.006;2023-02-15T02:11:15;4.80;99.90
5792;DHT22;2922;53.482;10.006;2023-02-15T02:13:42;4.80;99.90
5792;DHT22;2922;53.482;10.006;2023-02-15T02:21:30;4.80;99.90
5792;DHT22;2922;53.482;10.006;2023-02-15T02:24:36;4.80;99.90
5792;DHT22;2922;53.482;10.006;2023-02-15T02:39:06;4.70;99.90
5792;DHT22;2922;53.482;10.006;2023-02-15T02:41:53;4.70;99.90
5792;DHT22;2922;53.482;10.006;2023-02-15T02:44:42;4.70;99.90
5792;DHT22;2922;53.482;10.006;2023-02-15T02:47:30;4.70;99.90
5792;DHT22;2922;53.482;10.006;2023-02-15T02:50:07;4.70;99.90
5792;DHT22;2922;53.482;10.006;2023-02-15T02:52:43;4.70;99.90
5792;DHT22;2922;53.482;10.006;2023-02-15T02:58:01;4.70;99.90
5792;DHT22;2922;53.482;10.006;2023-02-15T03:00:32;4.60;99.90
5792;DHT22;2922;53.482;10.006;2023-02-15T03:03:03;4.60;99.90
5792;DHT22;2922;53.482;10.006;2023-02-15T03:05:31;4.60;99.90
5792;DHT22;2922;53.482;10.006;2023-02-15T03:07:59;4.60;99.90
5792;DHT22;2922;53.482;10.006;2023-02-15T03:10:32;4.60;99.90
5792;DHT22;2922;53.482;10.006;2023-02-15T03:12:59;4.60;99.90
5792;DHT22;2922;53.482;10.006;2023-02-15T03:15:38;4.60;99.90
5792;DHT22;2922;53.482;10.006;2023-02-15T03:18:26;4.60;99.90
5792;DHT22;2922;53.482;10.006;2023-02-15T03:20:54;4.60;99.90
5792;DHT22;2922;53.482;10.006;2023-02-15T03:23:23;4.60;99.90
5792;DHT22;2922;53.482;10.006;2023-02-15T03:25:59;4.60;99.90
5792;DHT22;2922;53.482;10.006;2023-02-15T03:28:30;4.60;99.90
5792;DHT22;2922;53.482;10.006;2023-02-15T03:31:00;4.60;99.90
5792;DHT22;2922;53.482;10.006;2023-02-15T03:33:28;4.60;99.90
5792;DHT22;2922;53.482;10.006;2023-02-15T03:36:36;4.60;99.90
5792;DHT22;2922;53.482;10.006;2023-02-15T03:41:39;4.60;99.90
5792;DHT22;2922;53.482;10.006;2023-02-15T03:44:29;4.50;99.90
5792;DHT22;2922;53.482;10.006;2023-02-15T03:47:08;4.50;99.90
5792;DHT22;2922;53.482;10.006;2023-02-15T03:52:26;4.50;99.90
5792;DHT22;2922;53.482;10.006;2023-02-15T03:54:53;4.50;99.90
5792;DHT22;2922;53.482;10.006;2023-02-15T04:00:16;4.50;99.90
5792;DHT22;2922;53.482;10.006;2023-02-15T04:05:32;4.50;99.90
5792;DHT22;2922;53.482;10.006;2023-02-15T04:07:58;4.50;99.90
5792;DHT22;2922;53.482;10.006;2023-02-15T04:10:23;4.40;99.90
5792;DHT22;2922;53.482;10.006;2023-02-15T04:13:07;4.40;99.90
5792;DHT22;2922;53.482;10.006;2023-02-15T04:15:33;4.40;99.90
5792;DHT22;2922;53.482;10.006;2023-02-15T04:18:17;4.40;99.90
5792;DHT22;2922;53.482;10.006;2023-02-15T04:20:46;4.40;99.90
5792;DHT22;2922;53.482;10.006;2023-02-15T04:23:30;4.40;99.90
5792;DHT22;2922;53.482;10.006;2023-02-15T04:26:15;4.40;99.90
5792;DHT22;2922;53.482;10.006;2023-02-15T04:28:40;4.40;99.90
5792;DHT22;2922;53.482;10.006;2023-02-15T04:31:06;4.40;99.90
5792;DHT22;2922;53.482;10.006;2023-02-15T04:33:31;4.30;99.90
5792;DHT22;2922;53.482;10.006;2023-02-15T04:35:57;4.30;99.90
5792;DHT22;2922;53.482;10.006;2023-02-15T04:38:23;4.30;99.90
5792;DHT22;2922;53.482;10.006;2023-02-15T04:40:52;4.30;99.90
5792;DHT22;2922;53.482;10.006;2023-02-15T04:43:21;4.20;99.90
5792;DHT22;2922;53.482;10.006;2023-02-15T04:45:50;4.20;99.90
5792;DHT22;2922;53.482;10.006;2023-02-15T04:48:16;4.20;99.90
5792;DHT22;2922;53.482;10.006;2023-02-15T04:50:43;4.20;99.90
5792;DHT22;2922;53.482;10.006;2023-02-15T04:53:08;4.20;99.90
5792;DHT22;2922;53.482;10.006;2023-02-15T04:55:34;4.20;99.90
5792;DHT22;2922;53.482;10.006;2023-02-15T04:58:00;4.20;99.90
5792;DHT22;2922;53.482;10.006;2023-02-15T05:00:25;4.20;99.90
5792;DHT22;2922;53.482;10.006;2023-02-15T05:02:51;4.20;99.90
5792;DHT22;2922;53.482;10.006;2023-02-15T05:05:16;4.20;99.90
5792;DHT22;2922;53.482;10.006;2023-02-15T05:07:42;4.10;99.90
5792;DHT22;2922;53.482;10.006;2023-02-15T05:10:08;4.10;99.90
5792;DHT22;2922;53.482;10.006;2023-02-15T05:12:34;4.10;99.90
5792;DHT22;2922;53.482;10.006;2023-02-15T05:14:59;4.10;99.90
5792;DHT22;2922;53.482;10.006;2023-02-15T05:17:25;4.10;99.90
5792;DHT22;2922;53.482;10.006;2023-02-15T05:19:50;4.00;99.90
5792;DHT22;2922;53.482;10.006;2023-02-15T05:22:16;4.00;99.90
5792;DHT22;2922;53.482;10.006;2023-02-15T05:24:41;4.00;99.90
5792;DHT22;2922;53.482;10.006;2023-02-15T05:27:25;4.00;99.90
5792;DHT22;2922;53.482;10.006;2023-02-15T05:30:10;4.00;99.90
5792;DHT22;2922;53.482;10.006;2023-02-15T05:32:37;4.00;99.90
5792;DHT22;2922;53.482;10.006;2023-02-15T05:35:05;4.00;99.90
5792;DHT22;2922;53.482;10.006;2023-02-15T05:37:31;4.00;99.90
5792;DHT22;2922;53.482;10.006;2023-02-15T05:39:56;3.90;99.90
5792;DHT22;2922;53.482;10.006;2023-02-15T05:42:22;3.90;99.90
5792;DHT22;2922;53.482;10.006;2023-02-15T05:44:47;3.90;99.90
5792;DHT22;2922;53.482;10.006;2023-02-15T05:47:13;3.90;99.90
5792;DHT22;2922;53.482;10.006;2023-02-15T05:49:38;3.90;99.90
5792;DHT22;2922;53.482;10.006;2023-02-15T05:52:04;3.90;99.90
5792;DHT22;2922;53.482;10.006;2023-02-15T05:54:30;3.90;99.90
5792;DHT22;2922;53.482;10.006;2023-02-15T05:56:55;3.80;99.90
5792;DHT22;2922;53.482;10.006;2023-02-15T05:59:21;3.80;99.90
5792;DHT22;2922;53.482;10.006;2023-02-15T06:01:46;3.80;99.90
5792;DHT22;2922;53.482;10.006;2023-02-15T06:04:12;3.80;99.90
5792;DHT22;2922;53.482;10.006;2023-02-15T06:06:38;3.80;99.90
5792;DHT22;2922;53.482;10.006;2023-02-15T06:09:04;3.80;99.90
5792;DHT22;2922;53.482;10.006;2023-02-15T06:11:29;3.80;99.90
5792;DHT22;2922;53.482;10.006;2023-02-15T06:13:55;3.80;99.90
5792;DHT22;2922;53.482;10.006;2023-02-15T06:16:21;3.80;99.90
5792;DHT22;2922;53.482;10.006;2023-02-15T06:18:46;3.70;99.90
5792;DHT22;2922;53.482;10.006;2023-02-15T06:21:12;3.70;99.90
5792;DHT22;2922;53.482;10.006;2023-02-15T06:23:37;3.70;99.90
5792;DHT22;2922;53.482;10.006;2023-02-15T06:26:03;3.70;99.90
5792;DHT22;2922;53.482;10.006;2023-02-15T06:28:29;3.70;99.90
5792;DHT22;2922;53.482;10.006;2023-02-15T06:30:54;3.70;99.90
5792;DHT22;2922;53.482;10.006;2023-02-15T06:33:20;3.70;99.90
5792;DHT22;2922;53.482;10.006;2023-02-15T06:35:46;3.70;99.90
5792;DHT22;2922;53.482;10.006;2023-02-15T06:38:11;3.60;99.90
5792;DHT22;2922;53.482;10.006;2023-02-15T06:40:37;3.60;99.90
5792;DHT22;2922;53.482;10.006;2023-02-15T06:43:02;3.60;99.90
5792;DHT22;2922;53.482;10.006;2023-02-15T06:45:28;3.50;99.90
5792;DHT22;2922;53.482;10.006;2023-02-15T06:47:54;3.50;99.90
5792;DHT22;2922;53.482;10.006;2023-02-15T06:50:19;3.50;99.90
5792;DHT22;2922;53.482;10.006;2023-02-15T06:52:45;3.50;99.90
5792;DHT22;2922;53.482;10.006;2023-02-15T06:55:11;3.50;99.90
5792;DHT22;2922;53.482;10.006;2023-02-15T06:57:36;3.50;99.90
5792;DHT22;2922;53.482;10.006;2023-02-15T07:00:03;3.50;99.90
5792;DHT22;2922;53.482;10.006;2023-02-15T07:02:30;3.50;99.90
5792;DHT22;2922;53.482;10.006;2023-02-15T07:04:56;3.60;99.90
5792;DHT22;2922;53.482;10.006;2023-02-15T07:07:22;3.60;99.90
5792;DHT22;2922;53.482;10.006;2023-02-15T07:09:48;3.60;99.90
5792;DHT22;2922;53.482;10.006;2023-02-15T07:12:14;3.60;99.90
5792;DHT22;2922;53.482;10.006;2023-02-15T07:14:58;3.60;99.90
5792;DHT22;2922;53.482;10.006;2023-02-15T07:17:24;3.60;99.90
5792;DHT22;2922;53.482;10.006;2023-02-15T07:19:49;3.60;99.90
5792;DHT22;2922;53.482;10.006;2023-02-15T07:22:15;3.60;99.90
5792;DHT22;2922;53.482;10.006;2023-02-15T07:24:40;3.60;99.90
5792;DHT22;2922;53.482;10.006;2023-02-15T07:27:07;3.60;99.90
5792;DHT22;2922;53.482;10.006;2023-02-15T07:29:33;3.60;99.90
5792;DHT22;2922;53.482;10.006;2023-02-15T07:31:58;3.60;99.90
5792;DHT22;2922;53.482;10.006;2023-02-15T07:34:24;3.60;99.90
5792;DHT22;2922;53.482;10.006;2023-02-15T07:36:50;3.60;99.90
5792;DHT22;2922;53.482;10.006;2023-02-15T07:39:16;3.60;99.90
5792;DHT22;2922;53.482;10.006;2023-02-15T07:41:42;3.60;99.90
5792;DHT22;2922;53.482;10.006;2023-02-15T07:44:11;3.60;99.90
5792;DHT22;2922;53.482;10.006;2023-02-15T07:46:38;3.60;99.90
5792;DHT22;2922;53.482;10.006;2023-02-15T07:49:04;3.60;99.90
5792;DHT22;2922;53.482;10.006;2023-02-15T07:51:30;3.60;99.90
5792;DHT22;2922;53.482;10.006;2023-02-15T07:53:55;3.60;99.90
5792;DHT22;2922;53.482;10.006;2023-02-15T07:56:21;3.60;99.90
5792;DHT22;2922;53.482;10.006;2023-02-15T07:58:46;3.50;99.90
5792;DHT22;2922;53.482;10.006;2023-02-15T08:01:22;3.50;99.90
5792;DHT22;2922;53.482;10.006;2023-02-15T08:03:49;3.40;99.90
5792;DHT22;2922;53.482;10.006;2023-02-15T08:06:14;3.40;99.90
5792;DHT22;2922;53.482;10.006;2023-02-15T08:08:40;3.40;99.90
5792;DHT22;2922;53.482;10.006;2023-02-15T08:14:05;3.40;99.90
5792;DHT22;2922;53.482;10.006;2023-02-15T08:16:46;3.40;99.90
5792;DHT22;2922;53.482;10.006;2023-02-15T08:19:16;3.40;99.90
5792;DHT22;2922;53.482;10.006;2023-02-15T08:21:45;3.50;99.90
5792;DHT22;2922;53.482;10.006;2023-02-15T08:24:12;3.50;99.90
5792;DHT22;2922;53.482;10.006;2023-02-15T08:26:38;3.50;99.90
5792;DHT22;2922;53.482;10.006;2023-02-15T08:29:05;3.50;99.90
5792;DHT22;2922;53.482;10.006;2023-02-15T08:31:32;3.50;99.90
5792;DHT22;2922;53.482;10.006;2023-02-15T08:33:58;3.40;99.90
5792;DHT22;2922;53.482;10.006;2023-02-15T08:36:28;3.50;99.90
5792;DHT22;2922;53.482;10.006;2023-02-15T08:38:55;3.50;99.90
5792;DHT22;2922;53.482;10.006;2023-02-15T08:41:25;3.50;99.90
5792;DHT22;2922;53.482;10.006;2023-02-15T08:43:53;3.50;99.90
5792;DHT22;2922;53.482;10.006;2023-02-15T08:46:20;3.50;99.90
5792;DHT22;2922;53.482;10.006;2023-02-15T08:48:46;3.50;99.90
5792;DHT22;2922;53.482;10.006;2023-02-15T08:51:14;3.50;99.90
5792;DHT22;2922;53.482;10.006;2023-02-15T08:53:42;3.50;99.90
5792;DHT22;2922;53.482;10.006;2023-02-15T08:56:08;3.50;99.90
5792;DHT22;2922;53.482;10.006;2023-02-15T08:58:34;3.60;99.90
5792;DHT22;2922;53.482;10.006;2023-02-15T09:01:00;3.50;99.90
5792;DHT22;2922;53.482;10.006;2023-02-15T09:03:27;3.50;99.90
5792;DHT22;2922;53.482;10.006;2023-02-15T09:06:00;3.50;99.90
5792;DHT22;2922;53.482;10.006;2023-02-15T09:08:26;3.50;99.90
5792;DHT22;2922;53.482;10.006;2023-02-15T09:10:53;3.50;99.90
5792;DHT22;2922;53.482;10.006;2023-02-15T09:13:19;3.50;99.90
5792;DHT22;2922;53.482;10.006;2023-02-15T09:15:45;3.50;99.90
5792;DHT22;2922;53.482;10.006;2023-02-15T09:18:11;3.60;99.90
5792;DHT22;2922;53.482;10.006;2023-02-15T09:20:37;3.60;99.90
5792;DHT22;2922;53.482;10.006;2023-02-15T09:23:03;3.60;99.90
5792;DHT22;2922;53.482;10.006;2023-02-15T09:25:28;3.50;99.90
5792;DHT22;2922;53.482;10.006;2023-02-15T09:27:54;3.50;99.90
5792;DHT22;2922;53.482;10.006;2023-02-15T09:30:20;3.60;99.90
5792;DHT22;2922;53.482;10.006;2023-02-15T09:32:45;3.60;99.90
5792;DHT22;2922;53.482;10.006;2023-02-15T09:35:12;3.60;99.90
5792;DHT22;2922;53.482;10.006;2023-02-15T09:37:37;3.70;99.90
5792;DHT22;2922;53.482;10.006;2023-02-15T09:40:04;3.70;99.90
5792;DHT22;2922;53.482;10.006;2023-02-15T09:48:29;3.90;99.90
5792;DHT22;2922;53.482;10.006;2023-02-15T09:51:14;4.00;99.90
5792;DHT22;2922;53.482;10.006;2023-02-15T09:56:58;4.00;99.90
5792;DHT22;2922;53.482;10.006;2023-02-15T10:05:30;4.00;99.90
5792;DHT22;2922;53.482;10.006;2023-02-15T10:08:01;4.10;99.90
5792;DHT22;2922;53.482;10.006;2023-02-15T10:13:40;4.20;99.90
5792;DHT22;2922;53.482;10.006;2023-02-15T10:16:48;4.20;99.90
5792;DHT22;2922;53.482;10.006;2023-02-15T10:19:27;4.20;99.90
5792;DHT22;2922;53.482;10.006;2023-02-15T10:22:28;4.20;99.90
5792;DHT22;2922;53.482;10.006;2023-02-15T10:27:47;4.30;99.90
5792;DHT22;2922;53.482;10.006;2023-02-15T10:30:27;4.30;99.90
5792;DHT22;2922;53.482;10.006;2023-02-15T10:33:02;4.40;99.90
5792;DHT22;2922;53.482;10.006;2023-02-15T10:40:57;4.60;99.90
5792;DHT22;2922;53.482;10.006;2023-02-15T10:43:47;4.60;99.90
5792;DHT22;2922;53.482;10.006;2023-02-15T10:46:32;4.60;99.90
5792;DHT22;2922;53.482;10.006;2023-02-15T10:49:22;4.70;99.90
5792;DHT22;2922;53.482;10.006;2023-02-15T10:57:59;5.00;99.90
5792;DHT22;2922;53.482;10.006;2023-02-15T11:06:03;5.40;99.90
5792;DHT22;2922;53.482;10.006;2023-02-15T11:08:32;5.40;99.90
5792;DHT22;2922;53.482;10.006;2023-02-15T11:11:02;5.40;99.90
5792;DHT22;2922;53.482;10.006;2023-02-15T11:13:33;5.40;99.90
5792;DHT22;2922;53.482;10.006;2023-02-15T11:16:14;5.40;99.90
5792;DHT22;2922;53.482;10.006;2023-02-15T11:18:45;5.50;99.90
5792;DHT22;2922;53.482;10.006;2023-02-15T11:21:40;5.60;99.90
5792;DHT22;2922;53.482;10.006;2023-02-15T11:24:19;5.70;99.90
5792;DHT22;2922;53.482;10.006;2023-02-15T11:27:00;5.80;99.90
5792;DHT22;2922;53.482;10.006;2023-02-15T11:29:58;5.90;99.90
5792;DHT22;2922;53.482;10.006;2023-02-15T11:32:35;5.90;99.90
5792;DHT22;2922;53.482;10.006;2023-02-15T11:40:15;6.20;99.90
5792;DHT22;2922;53.482;10.006;2023-02-15T11:42:43;6.40;99.90
5792;DHT22;2922;53.482;10.006;2023-02-15T11:45:25;6.60;99.90
5792;DHT22;2922;53.482;10.006;2023-02-15T11:47:53;6.70;99.90
5792;DHT22;2922;53.482;10.006;2023-02-15T11:50:24;7.00;99.90
5792;DHT22;2922;53.482;10.006;2023-02-15T11:52:52;7.20;99.90
5792;DHT22;2922;53.482;10.006;2023-02-15T11:55:21;7.30;99.90
5792;DHT22;2922;53.482;10.006;2023-02-15T11:58:18;7.50;99.90
5792;DHT22;2922;53.482;10.006;2023-02-15T12:00:44;7.60;99.90
5792;DHT22;2922;53.482;10.006;2023-02-15T12:03:15;7.70;99.90
5792;DHT22;2922;53.482;10.006;2023-02-15T12:05:45;7.90;99.90
5792;DHT22;2922;53.482;10.006;2023-02-15T12:08:16;8.00;99.90
5792;DHT22;2922;53.482;10.006;2023-02-15T12:10:57;8.20;99.90
5792;DHT22;2922;53.482;10.006;2023-02-15T12:13:23;8.30;99.90
5792;DHT22;2922;53.482;10.006;2023-02-15T12:15:52;8.40;99.90
5792;DHT22;2922;53.482;10.006;2023-02-15T12:21:12;8.60;99.90
5792;DHT22;2922;53.482;10.006;2023-02-15T12:26:07;8.60;99.90
5792;DHT22;2922;53.482;10.006;2023-02-15T12:28:39;8.60;99.90
5792;DHT22;2922;53.482;10.006;2023-02-15T12:31:21;8.70;99.90
5792;DHT22;2922;53.482;10.006;2023-02-15T12:33:50;8.80;99.90
5792;DHT22;2922;53.482;10.006;2023-02-15T12:36:20;8.90;99.90
5792;DHT22;2922;53.482;10.006;2023-02-15T12:41:38;9.00;99.90
5792;DHT22;2922;53.482;10.006;2023-02-15T12:46:59;9.10;99.90
5792;DHT22;2922;53.482;10.006;2023-02-15T12:49:26;9.00;99.90
5792;DHT22;2922;53.482;10.006;2023-02-15T12:51:55;9.00;99.90
5792;DHT22;2922;53.482;10.006;2023-02-15T12:54:27;9.10;99.90
5792;DHT22;2922;53.482;10.006;2023-02-15T12:56:53;9.00;99.90
5792;DHT22;2922;53.482;10.006;2023-02-15T12:59:19;9.10;99.90
5792;DHT22;2922;53.482;10.006;2023-02-15T13:01:46;9.00;99.90
5792;DHT22;2922;53.482;10.006;2023-02-15T13:04:27;8.80;99.90
5792;DHT22;2922;53.482;10.006;2023-02-15T13:06:56;8.70;99.90
5792;DHT22;2922;53.482;10.006;2023-02-15T13:12:21;8.90;99.90
5792;DHT22;2922;53.482;10.006;2023-02-15T13:14:51;9.00;99.90
5792;DHT22;2922;53.482;10.006;2023-02-15T13:17:20;9.10;99.90
5792;DHT22;2922;53.482;10.006;2023-02-15T13:19:51;9.20;99.90
5792;DHT22;2922;53.482;10.006;2023-02-15T13:22:25;9.20;99.90
5792;DHT22;2922;53.482;10.006;2023-02-15T13:24:58;9.20;99.90
5792;DHT22;2922;53.482;10.006;2023-02-15T13:27:32;9.30;99.90
5792;DHT22;2922;53.482;10.006;2023-02-15T13:30:04;9.40;99.90
5792;DHT22;2922;53.482;10.006;2023-02-15T13:32:37;9.50;99.90
5792;DHT22;2922;53.482;10.006;2023-02-15T13:35:05;9.60;99.90
5792;DHT22;2922;53.482;10.006;2023-02-15T13:40:48;9.80;99.90
5792;DHT22;2922;53.482;10.006;2023-02-15T13:43:44;9.80;99.90
5792;DHT22;2922;53.482;10.006;2023-02-15T13:48:51;10.00;99.90
5792;DHT22;2922;53.482;10.006;2023-02-15T13:51:34;10.10;99.90
5792;DHT22;2922;53.482;10.006;2023-02-15T13:56:53;10.10;99.90
5792;DHT22;2922;53.482;10.006;2023-02-15T14:07:56;9.90;99.90
5792;DHT22;2922;53.482;10.006;2023-02-15T14:10:33;10.00;99.90
5792;DHT22;2922;53.482;10.006;2023-02-15T14:13:36;10.10;99.90
5792;DHT22;2922;53.482;10.006;2023-02-15T14:18:54;10.10;99.90
5792;DHT22;2922;53.482;10.006;2023-02-15T14:21:40;10.20;99.90
5792;DHT22;2922;53.482;10.006;2023-02-15T14:34:59;10.50;99.90
5792;DHT22;2922;53.482;10.006;2023-02-15T14:37:52;10.60;99.90
5792;DHT22;2922;53.482;10.006;2023-02-15T14:43:47;10.40;99.90
5792;DHT22;2922;53.482;10.006;2023-02-15T14:49:20;10.40;99.90
5792;DHT22;2922;53.482;10.006;2023-02-15T14:59:36;10.00;99.90
5792;DHT22;2922;53.482;10.006;2023-02-15T15:04:34;10.00;99.90
5792;DHT22;2922;53.482;10.006;2023-02-15T15:07:22;9.90;99.90
5792;DHT22;2922;53.482;10.006;2023-02-15T15:09:59;9.90;99.90
5792;DHT22;2922;53.482;10.006;2023-02-15T15:14:52;9.80;99.90
5792;DHT22;2922;53.482;10.006;2023-02-15T15:20:02;9.70;99.90
5792;DHT22;2922;53.482;10.006;2023-02-15T15:22:31;9.60;99.90
5792;DHT22;2922;53.482;10.006;2023-02-15T15:24:59;9.50;99.90
5792;DHT22;2922;53.482;10.006;2023-02-15T15:35:49;9.20;99.90
5792;DHT22;2922;53.482;10.006;2023-02-15T15:49:43;8.70;99.90
5792;DHT22;2922;53.482;10.006;2023-02-15T15:52:20;8.70;99.90
5792;DHT22;2922;53.482;10.006;2023-02-15T15:54:49;8.60;99.90
5792;DHT22;2922;53.482;10.006;2023-02-15T15:59:46;8.50;99.90
5792;DHT22;2922;53.482;10.006;2023-02-15T16:02:16;8.40;99.90
5792;DHT22;2922;53.482;10.006;2023-02-15T16:04:43;8.30;99.90
5792;DHT22;2922;53.482;10.006;2023-02-15T16:10:00;8.20;99.90
5792;DHT22;2922;53.482;10.006;2023-02-15T16:12:28;8.10;99.90
5792;DHT22;2922;53.482;10.006;2023-02-15T16:14:55;8.10;99.90
5792;DHT22;2922;53.482;10.006;2023-02-15T16:17:26;8.00;99.90
5792;DHT22;2922;53.482;10.006;2023-02-15T16:20:20;8.00;99.90
5792;DHT22;2922;53.482;10.006;2023-02-15T16:22:49;7.80;99.90
5792;DHT22;2922;53.482;10.006;2023-02-15T16:25:31;7.70;99.90
5792;DHT22;2922;53.482;10.006;2023-02-15T16:28:21;7.60;99.90
5792;DHT22;2922;53.482;10.006;2023-02-15T16:30:58;7.50;99.90
5792;DHT22;2922;53.482;10.006;2023-02-15T16:33:35;7.40;99.90
5792;DHT22;2922;53.482;10.006;2023-02-15T16:36:02;7.30;99.90
5792;DHT22;2922;53.482;10.006;2023-02-15T16:41:10;7.20;99.90
5792;DHT22;2922;53.482;10.006;2023-02-15T16:43:37;7.10;99.90
5792;DHT22;2922;53.482;10.006;2023-02-15T16:46:05;7.10;99.90
5792;DHT22;2922;53.482;10.006;2023-02-15T16:48:32;7.00;99.90
5792;DHT22;2922;53.482;10.006;2023-02-15T16:50:59;6.90;99.90
5792;DHT22;2922;53.482;10.006;2023-02-15T16:53:27;6.80;99.90
5792;DHT22;2922;53.482;10.006;2023-02-15T16:56:01;6.80;99.90
5792;DHT22;2922;53.482;10.006;2023-02-15T17:01:27;6.70;99.90
5792;DHT22;2922;53.482;10.006;2023-02-15T17:04:13;6.60;99.90
5792;DHT22;2922;53.482;10.006;2023-02-15T17:09:28;6.50;99.90
5792;DHT22;2922;53.482;10.006;2023-02-15T17:11:53;6.40;99.90
5792;DHT22;2922;53.482;10.006;2023-02-15T17:14:21;6.40;99.90
5792;DHT22;2922;53.482;10.006;2023-02-15T17:16:53;6.30;99.90
5792;DHT22;2922;53.482;10.006;2023-02-15T17:19:33;6.30;99.90
5792;DHT22;2922;53.482;10.006;2023-02-15T17:22:06;6.30;99.90
5792;DHT22;2922;53.482;10.006;2023-02-15T17:24:33;6.20;99.90
5792;DHT22;2922;53.482;10.006;2023-02-15T17:27:03;6.20;99.90
5792;DHT22;2922;53.482;10.006;2023-02-15T17:29:37;6.10;99.90
5792;DHT22;2922;53.482;10.006;2023-02-15T17:32:04;6.00;99.90
5792;DHT22;2922;53.482;10.006;2023-02-15T17:37:42;6.00;99.90
5792;DHT22;2922;53.482;10.006;2023-02-15T17:40:20;5.90;99.90
5792;DHT22;2922;53.482;10.006;2023-02-15T17:42:46;5.90;99.90
5792;DHT22;2922;53.482;10.006;2023-02-15T17:45:12;5.80;99.90
5792;DHT22;2922;53.482;10.006;2023-02-15T17:47:38;5.80;99.90
5792;DHT22;2922;53.482;10.006;2023-02-15T17:50:06;5.70;99.90
5792;DHT22;2922;53.482;10.006;2023-02-15T17:52:31;5.70;99.90
5792;DHT22;2922;53.482;10.006;2023-02-15T17:54:57;5.60;99.90
5792;DHT22;2922;53.482;10.006;2023-02-15T17:57:42;5.60;99.90
5792;DHT22;2922;53.482;10.006;2023-02-15T18:00:12;5.50;99.90
5792;DHT22;2922;53.482;10.006;2023-02-15T18:02:56;5.50;99.90
5792;DHT22;2922;53.482;10.006;2023-02-15T18:05:40;5.40;99.90
5792;DHT22;2922;53.482;10.006;2023-02-15T18:08:26;5.40;99.90
5792;DHT22;2922;53.482;10.006;2023-02-15T18:11:11;5.30;99.90
5792;DHT22;2922;53.482;10.006;2023-02-15T18:13:55;5.20;99.90
5792;DHT22;2922;53.482;10.006;2023-02-15T18:16:26;5.20;99.90
5792;DHT22;2922;53.482;10.006;2023-02-15T18:18:54;5.10;99.90
5792;DHT22;2922;53.482;10.006;2023-02-15T18:21:20;5.10;99.90
5792;DHT22;2922;53.482;10.006;2023-02-15T18:23:45;5.00;99.90
5792;DHT22;2922;53.482;10.006;2023-02-15T18:26:22;5.00;99.90
5792;DHT22;2922;53.482;10.006;2023-02-15T18:28:49;4.90;99.90
5792;DHT22;2922;53.482;10.006;2023-02-15T18:31:15;4.90;99.90
5792;DHT22;2922;53.482;10.006;2023-02-15T18:33:44;4.80;99.90
5792;DHT22;2922;53.482;10.006;2023-02-15T18:36:25;4.80;99.90
5792;DHT22;2922;53.482;10.006;2023-02-15T18:38:55;4.80;99.90
5792;DHT22;2922;53.482;10.006;2023-02-15T18:41:21;4.70;99.90
5792;DHT22;2922;53.482;10.006;2023-02-15T18:43:48;4.70;99.90
5792;DHT22;2922;53.482;10.006;2023-02-15T18:46:15;4.70;99.90
5792;DHT22;2922;53.482;10.006;2023-02-15T18:48:41;4.60;99.90
5792;DHT22;2922;53.482;10.006;2023-02-15T18:51:21;4.60;99.90
5792;DHT22;2922;53.482;10.006;2023-02-15T18:53:49;4.60;99.90
5792;DHT22;2922;53.482;10.006;2023-02-15T18:56:17;4.50;99.90
5792;DHT22;2922;53.482;10.006;2023-02-15T18:58:44;4.40;99.90
5792;DHT22;2922;53.482;10.006;2023-02-15T19:01:19;4.40;99.90
5792;DHT22;2922;53.482;10.006;2023-02-15T19:03:47;4.40;99.90
5792;DHT22;2922;53.482;10.006;2023-02-15T19:06:16;4.40;99.90
5792;DHT22;2922;53.482;10.006;2023-02-15T19:08:43;4.30;99.90
5792;DHT22;2922;53.482;10.006;2023-02-15T19:11:21;4.30;99.90
5792;DHT22;2922;53.482;10.006;2023-02-15T19:13:48;4.30;99.90
5792;DHT22;2922;53.482;10.006;2023-02-15T19:16:33;4.20;99.90
5792;DHT22;2922;53.482;10.006;2023-02-15T19:19:00;4.20;99.90
5792;DHT22;2922;53.482;10.006;2023-02-15T19:21:27;4.10;99.90
5792;DHT22;2922;53.482;10.006;2023-02-15T19:24:00;4.10;99.90